Laval-Entrammes Airport

LFOV · Mayenne, 卢瓦尔河地区, 法国

罗盘
风向 的 风向 210° Laval-Entrammes Airport 14/32
风: 10 kt, 3 beaufort

4 kt

9 kt
改变
0 ft 1.000 2.000 3.000 4.000 5.000
Cloud Cloud Cloud Cloud Cloud Cloud Cloud Cloud
OVC 1.900
METAR LFOV 221130Z AUTO 21010KT 9999 OVC019 20/16 Q1021

METAR Laval-Entrammes Airport - LFOV/LVA

Laval-Entrammes Airport是,法国中的中型机场。 该机场位于纬度48,03297和经度-0,74414。 该机场有2条跑道: 14/32 和 14L/32R. 本场的ICAO机场代码为LFOV。 该机场的IATA代码为LVA。 机场在Brest FIR中。

该航空气象观测是针对Laval-Entrammes Airport在2024年7月22日 13:30, 当地时间进行的。

机场观察

风向为210°,速度为10 kt。

可见度为10 km 或者更多。

有乌云密布在1.900 ft的高度。 破损或更高的上限为1.900 ft。

温度和风寒是20 °C。 露点为16 °C,相对湿度为78%。 海平面上的气压为1021 hPa (QNH)。

白天

今天,太阳从06:27升起,在21:51降落。 这适用于Laval-Entrammes Airport,世界夏令时可能有所不同。 当地时间与世界标准时间之间的时差为+2 小时。 夏令时目前正在进行中。

公司介绍

在这个机场,你可以找到滑翔机飞行俱乐部, 飞行俱乐部 和 跳伞中心。 这个机场上的公司有Centre Ecole de Vol a Voile de la Mayenne, Aéroclub de la Mayenne 和 Centre école parachutisme LAVAL。

体会

到Vliegles.nl去找飞行课程,跳伞和其他飞行体验。 浏览页面,了解Laval-Entrammes Airport附近所有可用的活动。 你也可以使用搜索功能来寻找你所在地附近的特定飞行课程、跳伞或其他飞行体验。

跑道

Id 标题 侧风 逆风 侧风 %
14/32 142°-322° 9 kt 4 kt 93 %
14L/32R 142°-322° 9 kt 4 kt 93 %

逆风成分最大的方向会被突出显示,并用于横风计算。 这并不一定意味着这个方向在使用。

乌云

1.900 ft OVC 乌云密布

温度 & 天气

温度 20 °C
露点 16 °C
相对湿度 78%
Kp-index 3 (0-9)

白天

日出
06:27
中午
14:09
日落
21:51 (8:03)

小工具

你想在你的网站上有一个关于Laval-Entrammes Airport的当前航空天气(METAR)的小部件吗?

显示HTML代码
报告变更